AirNav   Everest Fuels
 
 607 users online  

5WN2 Eberle Ranch Airport
Dane, Wisconsin, USA

GOING TO DANE?


FAA INFORMATION EFFECTIVE 10 SEPTEMBER 2020

Location

FAA Identifier: 5WN2
Lat/Long: 43-16-06.0000N 089-29-04.0000W
43-16.100000N 089-29.066667W
43.2683333,-89.4844444
(estimated)
Elevation: 1050 ft. / 320 m (estimated)
From city: 1 mile N of DANE, WI
Time zone: UTC -5 (UTC -6 during Standard Time)
Zip code: 53529

Airport Operations

Airport use: Private use. Permission required prior to landing
Activation date: 07/2004
Control tower: no
ARTCC: CHICAGO CENTER
FSS: GREEN BAY FLIGHT SERVICE STATION
Attendance: UNATNDD
Wind indicator: yes
Segmented circle: yes

Airport Communications

WX AWOS-3 at C29 (9 nm S): 118.675 (608-833-1686)
WX ASOS at MSN (10 nm SE): PHONE 608-249-0615
WX AWOS-3 at DLL (20 nm NW): 118.325 (608-356-1071)

Nearby radio navigation aids

VOR radial/distance  VOR name  Freq  Var
MSNr316/9.7MADISON VORTAC108.6003E
DLLr141/20.9DELLS VORTAC117.0003E
LNRr093/28.4LONE ROCK VOR/DME112.8000E

 
NDB name  Hdg/Dist  Freq  Var  ID
ROCK RIVER281/33.737101WRYV .-. -.-- ...-
JUNEAU255/35.534401WUNU ..- -. ..-

Airport Services

Runway Information

Runway 11/29

Dimensions: 1900 x 100 ft. / 579 x 30 m
Surface: turf
RUNWAY 11  RUNWAY 29
Traffic pattern: leftleft
Obstructions: none17 ft. road, 600 ft. from runway

Airport Ownership and Management from official FAA records

Ownership: Privately-owned
Owner: RICH EBERLE
6354 CO HWY DM
DANE, WI 53529
Phone 608-850-4152
Manager: RICH EBERLE
6354 CO HWY DM
DANE, WI 53529
Phone 608-335-4040

Additional Remarks

FOR CD CTC CHICAGO ARTCC AT 630-906-8921.

Instrument Procedures

There are no published instrument procedures at 5WN2.

Some nearby airports with instrument procedures:

C29 - Middleton Municipal Airport - Morey Field (9 nm S)
KMSN - Dane County Regional Airport-Truax Field (10 nm SE)
91C - Sauk-Prairie Airport (12 nm W)
87Y - Blackhawk Airfield (16 nm SE)
C47 - Portage Municipal Airport (18 nm N)
KDLL - Baraboo-Wisconsin Dells Regional Airport (20 nm NW)
 
Loc | Ops | Rwys | IFR | FBO | Links
Com | Nav | Svcs | Stats | Notes
Area around 5WN2 (Eberle Ranch Airport)
 
Road maps at: MapQuest Bing Google
 
Aerial photo
No photo
 
Sectional chart

 
Airport distance calculator
Flying to Eberle Ranch Airport? Find the distance to fly.

From to 5WN2

Sunrise and sunset
Times for 22-Sep-2020
 Local
(UTC-5)
 Zulu
(UTC)
Morning civil twilight06:1911:19
Sunrise06:4711:47
Sunset18:5323:53
Evening civil twilight19:2200:22

Current date and time
Zulu (UTC)  22-Sep-2020 05:21:36
Local (UTC-5)  22-Sep-2020 00:21:36
 
METAR
KC29 
9nm S 
220455Z AUTO 18004KT 10SM CLR 18/09 A3022 RMK AO1 T01800087
KMSN 
10nm SE 
220453Z AUTO 19004KT 10SM CLR 17/10 A3021 RMK AO2 SLP229 T01720100 $
KDLL 
20nm NW 
220455Z AUTO 21006KT 10SM CLR 17/09 A3021 RMK AO2 LTG DSNT NE T01650085
TAF
KMSN 
10nm SE 
220240Z 2203/2224 19010KT P6SM SCT170 FM221300 22004KT P6SM SCT150
NOTAMs
Click for the latest NOTAMs
NOTAMs are issued by the DoD/FAA and will open in a separate window not controlled by AirNav.

 

 
 

Would you like to see your business listed on this page?

 If your business provides an interesting product or service to pilots, flight crews, aircraft, or users of the Eberle Ranch Airport, you should consider listing it here.  To start the listing process, click on the button below
 
Add a business
 

Other Pages about Eberle Ranch Airport

Update a link
 
Copyright © AirNav, LLC. All rights reserved. Privacy Policy  Contact